Time;durP1;ratioP1;P1;durP2;ratioP2;P2;SDS_P1;SDS_P2;PMS_P1;PMS_P2;Temp;Humidity;BMP_temperature;BMP_pressure;BME280_temperature;BME280_humidity;BME280_pressure;Samples;Min_cycle;Max_cycle;Signal;HPM_P1;HPM_P2
2023/06/19 00:00:59;;;;;;;9.63;3.45;;;;;;;;;;4961309;28;20466;-73
2023/06/19 00:03:25;;;;;;;10.30;3.65;;;;;;;;;;4955838;28;20468;-73
2023/06/19 00:05:51;;;;;;;10.25;4.05;;;;;;;;;;4960524;28;20477;-75
2023/06/19 00:08:18;;;;;;;10.50;3.80;;;;;;;;;;4960366;28;20054;-73
2023/06/19 00:10:44;;;;;;;10.25;3.95;;;;;;;;;;4961846;28;20072;-74
2023/06/19 00:13:10;;;;;;;11.57;4.03;;;;;;;;;;4943254;28;20034;-74
2023/06/19 00:15:36;;;;;;;8.68;3.80;;;;;;;;;;4958977;28;20030;-74
2023/06/19 00:18:02;;;;;;;8.27;3.58;;;;;;;;;;4955148;28;20363;-74
2023/06/19 00:20:28;;;;;;;9.60;4.25;;;;;;;;;;4940629;28;20034;-74
2023/06/19 00:22:54;;;;;;;8.90;3.70;;;;;;;;;;4962236;28;20586;-74
2023/06/19 00:25:21;;;;;;;9.98;4.38;;;;;;;;;;4956686;28;20140;-73
2023/06/19 00:27:47;;;;;;;8.80;3.72;;;;;;;;;;4957497;28;20066;-73
2023/06/19 00:30:14;;;;;;;9.25;3.50;;;;;;;;;;4956318;28;20420;-73
2023/06/19 00:32:46;;;;;;;9.07;4.25;;;;;;;;;;4962042;28;20022;-73
2023/06/19 00:35:15;;;;;;;9.32;4.75;;;;;;;;;;4961017;28;20401;-73
2023/06/19 00:37:45;;;;;;;10.68;5.70;;;;;;;;;;4948310;28;20026;-73
2023/06/19 00:40:14;;;;;;;9.32;4.28;;;;;;;;;;4959292;28;20034;-73
2023/06/19 00:42:41;;;;;;;9.48;4.05;;;;;;;;;;4962990;28;20018;-73
2023/06/19 00:45:07;;;;;;;8.98;3.67;;;;;;;;;;4940504;28;20042;-73
2023/06/19 00:47:34;;;;;;;9.48;3.63;;;;;;;;;;4963388;28;20608;-73
2023/06/19 00:50:00;;;;;;;8.30;3.17;;;;;;;;;;4960835;28;20053;-73
2023/06/19 00:52:26;;;;;;;7.05;3.42;;;;;;;;;;4961478;28;20487;-74
2023/06/19 00:54:53;;;;;;;9.57;4.13;;;;;;;;;;4965383;28;20139;-74
2023/06/19 00:57:19;;;;;;;10.05;3.92;;;;;;;;;;4963907;28;20018;-74
2023/06/19 00:59:46;;;;;;;7.88;3.70;;;;;;;;;;4962272;28;20467;-74
2023/06/19 01:02:12;;;;;;;9.15;3.70;;;;;;;;;;4946625;28;20027;-73
2023/06/19 01:04:38;;;;;;;7.63;3.33;;;;;;;;;;4964680;28;20038;-73
2023/06/19 01:07:09;;;;;;;8.02;3.50;;;;;;;;;;4964215;28;20033;-74
2023/06/19 01:09:39;;;;;;;7.90;3.42;;;;;;;;;;4965218;28;20046;-74
2023/06/19 01:12:09;;;;;;;8.13;3.50;;;;;;;;;;4950026;28;20443;-73
2023/06/19 01:14:51;;;;;;;9.18;3.78;;;;;;;;;;4966265;28;20046;-73
2023/06/19 01:17:17;;;;;;;8.45;3.85;;;;;;;;;;4963363;28;20480;-75
2023/06/19 01:19:43;;;;;;;10.00;4.00;;;;;;;;;;4966540;28;20145;-73
2023/06/19 01:22:09;;;;;;;9.70;3.90;;;;;;;;;;4963132;28;20042;-73
2023/06/19 01:24:35;;;;;;;9.45;4.30;;;;;;;;;;4966587;28;20577;-73
2023/06/19 01:27:02;;;;;;;10.60;4.38;;;;;;;;;;4963214;28;20034;-72
2023/06/19 01:29:28;;;;;;;13.90;4.28;;;;;;;;;;4963251;28;20049;-72
2023/06/19 01:32:05;;;;;;;10.88;4.20;;;;;;;;;;4963782;28;20030;-72
2023/06/19 01:34:32;;;;;;;10.10;4.13;;;;;;;;;;4949804;28;20121;-72
2023/06/19 01:36:59;;;;;;;12.02;4.82;;;;;;;;;;4962820;28;20050;-73
2023/06/19 01:39:26;;;;;;;13.60;5.40;;;;;;;;;;4945686;28;20572;-73
2023/06/19 01:41:53;;;;;;;11.48;4.30;;;;;;;;;;4947682;28;20476;-73
2023/06/19 01:44:19;;;;;;;11.98;4.15;;;;;;;;;;4959987;28;20057;-74
2023/06/19 01:46:49;;;;;;;13.90;4.47;;;;;;;;;;4964830;28;20430;-73
2023/06/19 01:49:15;;;;;;;12.32;5.20;;;;;;;;;;4945909;28;20042;-74
2023/06/19 01:51:41;;;;;;;14.07;4.70;;;;;;;;;;4951985;28;20485;-73
2023/06/19 01:54:07;;;;;;;17.20;5.32;;;;;;;;;;4964033;28;20034;-73
2023/06/19 01:56:33;;;;;;;12.60;5.07;;;;;;;;;;4965457;28;20383;-74
2023/06/19 01:58:59;;;;;;;12.00;4.28;;;;;;;;;;4964826;28;20018;-74
2023/06/19 02:01:26;;;;;;;14.02;5.70;;;;;;;;;;4961442;28;20539;-73
2023/06/19 02:03:52;;;;;;;15.55;5.45;;;;;;;;;;4965014;28;20037;-74
2023/06/19 02:06:18;;;;;;;15.95;5.35;;;;;;;;;;4947975;28;20207;-73
2023/06/19 02:08:44;;;;;;;15.55;5.72;;;;;;;;;;4943701;28;20035;-72
2023/06/19 02:11:11;;;;;;;14.85;6.25;;;;;;;;;;4962306;28;20128;-72
2023/06/19 02:13:37;;;;;;;16.25;5.57;;;;;;;;;;4951378;28;20035;-72
2023/06/19 02:16:03;;;;;;;17.02;5.55;;;;;;;;;;4966305;28;20488;-72
2023/06/19 02:18:30;;;;;;;14.50;5.45;;;;;;;;;;4964682;28;20034;-69
2023/06/19 02:20:56;;;;;;;15.10;5.60;;;;;;;;;;4964279;28;20042;-68
2023/06/19 02:23:22;;;;;;;14.13;5.93;;;;;;;;;;4960262;28;20133;-68
2023/06/19 02:25:49;;;;;;;13.70;4.95;;;;;;;;;;4963632;28;20035;-68
2023/06/19 02:28:15;;;;;;;15.57;5.47;;;;;;;;;;4960866;28;20121;-68
2023/06/19 02:30:42;;;;;;;12.82;4.97;;;;;;;;;;4963370;28;20034;-68
2023/06/19 02:33:08;;;;;;;15.73;4.75;;;;;;;;;;4961500;28;20030;-68
2023/06/19 02:35:34;;;;;;;13.30;4.88;;;;;;;;;;4949962;28;20038;-68
2023/06/19 02:38:00;;;;;;;11.95;5.18;;;;;;;;;;4948696;28;20050;-68
2023/06/19 02:40:26;;;;;;;15.73;5.32;;;;;;;;;;4961075;28;20272;-68
2023/06/19 02:42:52;;;;;;;13.40;5.45;;;;;;;;;;4964530;28;20030;-68
2023/06/19 02:45:18;;;;;;;14.10;5.07;;;;;;;;;;4960588;28;20325;-66
2023/06/19 02:47:44;;;;;;;14.55;5.80;;;;;;;;;;4964869;28;20319;-66
2023/06/19 02:50:10;;;;;;;13.75;5.43;;;;;;;;;;4960876;28;20457;-66
2023/06/19 02:52:37;;;;;;;14.82;5.72;;;;;;;;;;4961019;28;20121;-66
2023/06/19 02:55:03;;;;;;;15.15;5.30;;;;;;;;;;4963880;28;20076;-66
2023/06/19 02:57:29;;;;;;;14.27;5.55;;;;;;;;;;4948445;28;20072;-68
2023/06/19 02:59:55;;;;;;;13.05;5.15;;;;;;;;;;4963905;28;20030;-67
2023/06/19 03:02:21;;;;;;;14.85;5.22;;;;;;;;;;4961731;28;20129;-68
2023/06/19 03:04:47;;;;;;;17.38;5.60;;;;;;;;;;4964206;28;20438;-66
2023/06/19 03:07:13;;;;;;;17.08;5.80;;;;;;;;;;4959359;28;20023;-67
2023/06/19 03:09:40;;;;;;;17.02;5.55;;;;;;;;;;4948879;28;20178;-68
2023/06/19 03:12:06;;;;;;;17.00;5.50;;;;;;;;;;4960041;28;20650;-67
2023/06/19 03:14:32;;;;;;;13.85;5.28;;;;;;;;;;4964386;28;20045;-67
2023/06/19 03:16:58;;;;;;;15.05;5.93;;;;;;;;;;4964527;28;20210;-67
2023/06/19 03:19:25;;;;;;;17.50;6.28;;;;;;;;;;4959405;28;20084;-67
2023/06/19 03:21:51;;;;;;;21.90;6.65;;;;;;;;;;4964256;28;20114;-66
2023/06/19 03:24:17;;;;;;;16.30;6.00;;;;;;;;;;4949491;28;20049;-67
2023/06/19 03:26:43;;;;;;;15.23;5.65;;;;;;;;;;4964534;28;20112;-67
2023/06/19 03:29:09;;;;;;;17.45;6.13;;;;;;;;;;4944880;28;20116;-68
2023/06/19 03:31:35;;;;;;;20.73;6.25;;;;;;;;;;4968367;28;20194;-67
2023/06/19 03:34:02;;;;;;;19.10;7.18;;;;;;;;;;4961004;28;20371;-68
2023/06/19 03:36:28;;;;;;;17.58;6.70;;;;;;;;;;4960408;28;20027;-67
2023/06/19 03:38:55;;;;;;;14.43;6.00;;;;;;;;;;4962874;28;20029;-68
2023/06/19 03:41:21;;;;;;;14.15;5.38;;;;;;;;;;4960599;28;20346;-68
2023/06/19 03:43:47;;;;;;;16.65;6.07;;;;;;;;;;4960918;28;20812;-68
2023/06/19 03:46:14;;;;;;;15.63;6.00;;;;;;;;;;4958317;28;20417;-67
2023/06/19 03:48:40;;;;;;;15.10;5.90;;;;;;;;;;4961179;28;20544;-68
2023/06/19 03:51:06;;;;;;;17.40;6.30;;;;;;;;;;4945821;28;20061;-67
2023/06/19 03:53:32;;;;;;;17.25;5.93;;;;;;;;;;4963662;28;20349;-68
2023/06/19 03:55:58;;;;;;;20.38;6.15;;;;;;;;;;4962838;28;20213;-67
2023/06/19 03:58:24;;;;;;;18.30;6.18;;;;;;;;;;4960396;28;21023;-68
2023/06/19 04:00:51;;;;;;;18.70;6.32;;;;;;;;;;4964223;28;20474;-67
2023/06/19 04:03:17;;;;;;;18.80;6.35;;;;;;;;;;4959839;28;20497;-67
2023/06/19 04:05:44;;;;;;;17.77;5.95;;;;;;;;;;4963895;28;20041;-67
2023/06/19 04:08:10;;;;;;;16.45;6.10;;;;;;;;;;4959058;28;20048;-67
2023/06/19 04:10:36;;;;;;;15.68;6.07;;;;;;;;;;4963604;28;20034;-67
2023/06/19 04:13:02;;;;;;;15.63;5.95;;;;;;;;;;4961126;28;20492;-67
2023/06/19 04:15:28;;;;;;;20.25;6.10;;;;;;;;;;4959480;28;20437;-67
2023/06/19 04:17:55;;;;;;;18.58;5.90;;;;;;;;;;4962193;28;20151;-67
2023/06/19 04:20:21;;;;;;;14.80;5.63;;;;;;;;;;4960078;28;20149;-68
2023/06/19 04:22:47;;;;;;;20.17;6.13;;;;;;;;;;4963377;28;20022;-68
2023/06/19 04:25:13;;;;;;;14.95;5.57;;;;;;;;;;4959409;28;20409;-68
2023/06/19 04:27:39;;;;;;;16.58;6.00;;;;;;;;;;4962125;28;20030;-67
2023/06/19 04:30:06;;;;;;;17.10;6.32;;;;;;;;;;4945691;28;20442;-67
2023/06/19 04:32:32;;;;;;;15.70;6.20;;;;;;;;;;4964070;28;20031;-67
2023/06/19 04:34:59;;;;;;;17.15;6.43;;;;;;;;;;4964410;28;20675;-67
2023/06/19 04:37:25;;;;;;;17.38;6.40;;;;;;;;;;4958481;28;20729;-67
2023/06/19 04:39:51;;;;;;;19.05;6.35;;;;;;;;;;4963956;28;20594;-67
2023/06/19 04:42:20;;;;;;;15.65;5.72;;;;;;;;;;4960700;28;20383;-68
2023/06/19 04:44:47;;;;;;;17.10;6.20;;;;;;;;;;4962929;28;20030;-66
2023/06/19 04:47:14;;;;;;;19.02;6.20;;;;;;;;;;4960294;28;20622;-67
2023/06/19 04:49:40;;;;;;;19.25;5.82;;;;;;;;;;4963359;28;20022;-67
2023/06/19 04:52:06;;;;;;;18.05;6.22;;;;;;;;;;4958758;28;20035;-67
2023/06/19 04:54:32;;;;;;;19.23;6.38;;;;;;;;;;4962962;28;20034;-67
2023/06/19 04:56:59;;;;;;;19.67;6.72;;;;;;;;;;4963185;28;20665;-67
2023/06/19 04:59:25;;;;;;;18.23;6.55;;;;;;;;;;4958802;28;20035;-67
2023/06/19 05:01:54;;;;;;;19.50;6.72;;;;;;;;;;4963638;28;20101;-67
2023/06/19 05:04:22;;;;;;;20.02;8.02;;;;;;;;;;4947196;28;20038;-66
2023/06/19 05:06:48;;;;;;;18.13;7.35;;;;;;;;;;4960809;28;20468;-66
2023/06/19 05:09:14;;;;;;;21.45;8.65;;;;;;;;;;4959140;28;20050;-67
2023/06/19 05:11:41;;;;;;;21.25;7.80;;;;;;;;;;4946047;28;20645;-66
2023/06/19 05:14:07;;;;;;;24.50;9.10;;;;;;;;;;4957676;28;20042;-66
2023/06/19 05:16:34;;;;;;;16.88;6.28;;;;;;;;;;4962419;28;20026;-66
2023/06/19 05:19:00;;;;;;;19.45;6.75;;;;;;;;;;4966384;28;20066;-68
2023/06/19 05:21:26;;;;;;;17.05;7.05;;;;;;;;;;4966403;28;20408;-66
2023/06/19 05:23:52;;;;;;;21.40;6.80;;;;;;;;;;4947156;28;20152;-67
2023/06/19 05:26:19;;;;;;;22.35;6.38;;;;;;;;;;4960814;28;20395;-66
2023/06/19 05:28:45;;;;;;;19.60;6.10;;;;;;;;;;4963879;28;20034;-66
2023/06/19 05:31:12;;;;;;;24.25;7.90;;;;;;;;;;4963343;28;20160;-66
2023/06/19 05:33:38;;;;;;;19.33;7.00;;;;;;;;;;4965152;28;20109;-66
2023/06/19 05:36:04;;;;;;;21.33;6.65;;;;;;;;;;4965668;28;20022;-66
2023/06/19 05:38:30;;;;;;;19.08;7.00;;;;;;;;;;4963603;28;20031;-66
2023/06/19 05:41:00;;;;;;;20.35;6.03;;;;;;;;;;4966150;28;20054;-66
2023/06/19 05:43:26;;;;;;;18.30;6.40;;;;;;;;;;4962656;28;20061;-66
2023/06/19 05:45:53;;;;;;;18.85;5.95;;;;;;;;;;4964974;28;20383;-64
2023/06/19 05:48:19;;;;;;;17.92;6.13;;;;;;;;;;4962995;28;20380;-67
2023/06/19 05:50:46;;;;;;;18.50;6.53;;;;;;;;;;4950316;28;20473;-65
2023/06/19 05:53:12;;;;;;;19.17;6.20;;;;;;;;;;4946898;28;20476;-67
2023/06/19 05:55:38;;;;;;;18.63;6.30;;;;;;;;;;4965284;28;20033;-64
2023/06/19 05:58:04;;;;;;;27.08;6.40;;;;;;;;;;4962259;28;20053;-65
2023/06/19 06:00:31;;;;;;;18.35;6.03;;;;;;;;;;4965606;28;20033;-67
2023/06/19 06:03:00;;;;;;;20.15;6.28;;;;;;;;;;4965195;28;20034;-65
2023/06/19 06:05:27;;;;;;;20.55;6.22;;;;;;;;;;4962453;28;20689;-65
2023/06/19 06:07:54;;;;;;;15.57;5.43;;;;;;;;;;4963026;28;20129;-65
2023/06/19 06:10:23;;;;;;;16.60;5.43;;;;;;;;;;4961470;28;20507;-65
2023/06/19 06:12:50;;;;;;;19.52;6.15;;;;;;;;;;4962932;28;20311;-66
2023/06/19 06:15:16;;;;;;;18.15;5.70;;;;;;;;;;4960642;28;20301;-66
2023/06/19 06:17:42;;;;;;;17.70;6.75;;;;;;;;;;4962792;28;20062;-66
2023/06/19 06:20:12;;;;;;;15.50;5.80;;;;;;;;;;4948063;28;20133;-66
2023/06/19 06:22:41;;;;;;;16.60;5.53;;;;;;;;;;4960606;28;20380;-65
2023/06/19 06:25:08;;;;;;;17.75;5.93;;;;;;;;;;4958595;28;20101;-65
2023/06/19 06:27:34;;;;;;;20.55;6.43;;;;;;;;;;4962656;28;20034;-66
2023/06/19 06:30:01;;;;;;;19.42;5.97;;;;;;;;;;4964319;28;20038;-66
2023/06/19 06:32:28;;;;;;;20.98;6.18;;;;;;;;;;4960542;28;20080;-65
2023/06/19 06:34:55;;;;;;;21.00;6.47;;;;;;;;;;4964044;28;20030;-65
2023/06/19 06:37:24;;;;;;;21.23;5.80;;;;;;;;;;4959666;28;20034;-65
2023/06/19 06:39:50;;;;;;;17.63;5.82;;;;;;;;;;4962471;28;20027;-66
2023/06/19 06:42:17;;;;;;;18.15;5.90;;;;;;;;;;4962118;28;20034;-66
2023/06/19 06:44:43;;;;;;;22.08;6.18;;;;;;;;;;4961902;28;20030;-66
2023/06/19 06:47:09;;;;;;;15.80;5.82;;;;;;;;;;4962415;28;20054;-66
2023/06/19 06:49:36;;;;;;;18.95;5.70;;;;;;;;;;4964492;28;20049;-65
2023/06/19 06:52:03;;;;;;;17.50;5.85;;;;;;;;;;4960688;28;20034;-66
2023/06/19 06:54:29;;;;;;;16.48;5.85;;;;;;;;;;4959778;28;20690;-65
2023/06/19 06:56:59;;;;;;;17.00;5.85;;;;;;;;;;4962547;28;20026;-66
2023/06/19 06:59:26;;;;;;;19.95;6.18;;;;;;;;;;4956749;28;20387;-65
2023/06/19 07:01:53;;;;;;;19.65;5.82;;;;;;;;;;4963698;28;20018;-65
2023/06/19 07:04:19;;;;;;;17.30;5.78;;;;;;;;;;4959934;28;20535;-65
2023/06/19 07:06:45;;;;;;;18.65;5.53;;;;;;;;;;4961865;28;20034;-65
2023/06/19 07:09:12;;;;;;;19.60;5.57;;;;;;;;;;4957730;28;20046;-65
2023/06/19 07:11:38;;;;;;;18.65;6.22;;;;;;;;;;4963260;28;20042;-65
2023/06/19 07:14:04;;;;;;;17.88;5.95;;;;;;;;;;4963022;28;20042;-65
2023/06/19 07:16:30;;;;;;;17.02;5.57;;;;;;;;;;4950702;28;20031;-65
2023/06/19 07:18:57;;;;;;;19.30;5.47;;;;;;;;;;4962574;28;20480;-65
2023/06/19 07:21:23;;;;;;;15.68;5.47;;;;;;;;;;4960362;28;20438;-65
2023/06/19 07:23:49;;;;;;;20.58;6.05;;;;;;;;;;4960910;28;20509;-65
2023/06/19 07:26:16;;;;;;;16.45;5.57;;;;;;;;;;4962703;28;20355;-65
2023/06/19 07:28:42;;;;;;;16.52;5.68;;;;;;;;;;4947664;28;20062;-65
2023/06/19 07:31:09;;;;;;;16.90;6.60;;;;;;;;;;4960196;28;20026;-65
2023/06/19 07:33:35;;;;;;;17.90;6.25;;;;;;;;;;4961860;28;20030;-65
2023/06/19 07:36:02;;;;;;;15.75;5.55;;;;;;;;;;4952331;28;20093;-65
2023/06/19 07:38:28;;;;;;;16.38;5.10;;;;;;;;;;4944183;28;20034;-65
2023/06/19 07:40:55;;;;;;;16.05;5.55;;;;;;;;;;4960307;28;20058;-65
2023/06/19 07:43:24;;;;;;;17.60;5.55;;;;;;;;;;4958668;28;20200;-64
2023/06/19 07:45:50;;;;;;;17.40;5.82;;;;;;;;;;4962840;28;20027;-64
2023/06/19 07:48:16;;;;;;;16.33;5.90;;;;;;;;;;4959448;28;20104;-64
2023/06/19 07:50:43;;;;;;;14.45;5.70;;;;;;;;;;4963971;28;20493;-64
2023/06/19 07:53:09;;;;;;;16.25;5.35;;;;;;;;;;4957866;28;20522;-65
2023/06/19 07:55:35;;;;;;;15.00;4.90;;;;;;;;;;4962089;28;20026;-65
2023/06/19 07:58:01;;;;;;;21.40;6.18;;;;;;;;;;4963686;28;20030;-66
2023/06/19 08:00:27;;;;;;;15.52;5.57;;;;;;;;;;4947506;28;20077;-64
2023/06/19 08:02:53;;;;;;;18.60;6.97;;;;;;;;;;4945396;28;20124;-65
2023/06/19 08:05:20;;;;;;;28.25;11.07;;;;;;;;;;4960915;28;20397;-65
2023/06/19 08:07:46;;;;;;;35.97;15.57;;;;;;;;;;4962325;28;20243;-65
2023/06/19 08:10:12;;;;;;;22.60;8.60;;;;;;;;;;4956576;28;20038;-65
2023/06/19 08:12:38;;;;;;;22.75;6.93;;;;;;;;;;4959917;28;20056;-65
2023/06/19 08:15:05;;;;;;;21.00;6.15;;;;;;;;;;4963186;28;20034;-64
2023/06/19 08:17:31;;;;;;;19.10;5.70;;;;;;;;;;4961350;28;20349;-64
2023/06/19 08:19:57;;;;;;;18.13;5.93;;;;;;;;;;4964899;28;20107;-64
2023/06/19 08:22:24;;;;;;;16.63;5.18;;;;;;;;;;4946170;28;20046;-64
2023/06/19 08:24:51;;;;;;;15.50;4.90;;;;;;;;;;4963065;28;20031;-65
2023/06/19 08:27:17;;;;;;;16.25;4.93;;;;;;;;;;4959210;28;20042;-65
2023/06/19 08:29:43;;;;;;;19.65;5.97;;;;;;;;;;4962367;28;20116;-65
2023/06/19 08:32:09;;;;;;;17.27;5.35;;;;;;;;;;4958669;28;20029;-65
2023/06/19 08:34:37;;;;;;;21.70;5.50;;;;;;;;;;4963367;28;20694;-65
2023/06/19 08:37:04;;;;;;;14.80;5.05;;;;;;;;;;4948689;28;20054;-65
2023/06/19 08:39:30;;;;;;;16.73;5.10;;;;;;;;;;4963729;28;20424;-64
2023/06/19 08:41:57;;;;;;;15.25;4.43;;;;;;;;;;4960032;28;20288;-65
2023/06/19 08:44:23;;;;;;;16.40;4.80;;;;;;;;;;4956784;28;20045;-65
2023/06/19 08:46:49;;;;;;;16.30;4.78;;;;;;;;;;4959495;28;20779;-65
2023/06/19 08:49:15;;;;;;;17.80;5.68;;;;;;;;;;4958709;28;20045;-65
2023/06/19 08:51:41;;;;;;;13.77;4.82;;;;;;;;;;4948066;28;20062;-65
2023/06/19 08:54:08;;;;;;;18.45;5.65;;;;;;;;;;4950037;28;20436;-65
2023/06/19 08:56:37;;;;;;;15.43;4.57;;;;;;;;;;4963674;28;20030;-65
2023/06/19 08:59:13;;;;;;;15.13;5.22;;;;;;;;;;4949906;28;20533;-65
2023/06/19 09:01:40;;;;;;;16.70;4.88;;;;;;;;;;4964740;28;20034;-65
2023/06/19 09:04:10;;;;;;;14.63;5.03;;;;;;;;;;4963052;28;20379;-64
2023/06/19 09:06:38;;;;;;;19.13;4.90;;;;;;;;;;4964886;28;20041;-65
2023/06/19 09:09:10;;;;;;;16.00;5.05;;;;;;;;;;4964283;28;20047;-66
2023/06/19 09:11:39;;;;;;;14.98;4.93;;;;;;;;;;4967780;28;20046;-65
2023/06/19 09:14:06;;;;;;;12.43;4.97;;;;;;;;;;4962119;28;20064;-66
2023/06/19 09:16:42;;;;;;;15.80;5.05;;;;;;;;;;4951152;28;20026;-67
2023/06/19 09:19:08;;;;;;;14.85;4.97;;;;;;;;;;4962136;28;20458;-66
2023/06/19 09:21:38;;;;;;;16.63;5.35;;;;;;;;;;4965826;28;20121;-67
2023/06/19 09:24:07;;;;;;;14.57;5.10;;;;;;;;;;4964624;28;20161;-67
2023/06/19 09:26:34;;;;;;;14.80;5.07;;;;;;;;;;4958999;28;20029;-65
2023/06/19 09:29:10;;;;;;;11.95;4.40;;;;;;;;;;4947497;28;20117;-66
2023/06/19 09:31:37;;;;;;;13.13;4.80;;;;;;;;;;4960404;28;20037;-66
2023/06/19 09:34:04;;;;;;;17.25;5.53;;;;;;;;;;4958997;28;20377;-66
2023/06/19 09:36:32;;;;;;;16.00;5.40;;;;;;;;;;4944513;28;20421;-65
2023/06/19 09:39:00;;;;;;;17.27;5.65;;;;;;;;;;4961720;28;20031;-65
2023/06/19 09:41:26;;;;;;;17.80;5.72;;;;;;;;;;4956868;28;20288;-65
2023/06/19 09:43:59;;;;;;;18.73;5.13;;;;;;;;;;4962172;28;20386;-65
2023/06/19 09:46:33;;;;;;;22.05;6.05;;;;;;;;;;4943817;28;21131;-65
2023/06/19 09:49:01;;;;;;;15.00;5.00;;;;;;;;;;4959741;28;20196;-65
2023/06/19 09:51:47;;;;;;;16.92;5.03;;;;;;;;;;4956638;28;20046;-65
2023/06/19 09:54:15;;;;;;;16.77;4.63;;;;;;;;;;4954057;28;20038;-65
2023/06/19 09:56:42;;;;;;;18.00;5.32;;;;;;;;;;4960530;28;20300;-65
2023/06/19 09:59:09;;;;;;;18.50;5.07;;;;;;;;;;4958599;28;20073;-65
2023/06/19 10:01:36;;;;;;;20.80;5.25;;;;;;;;;;4960901;28;20559;-65
2023/06/19 10:04:07;;;;;;;16.25;4.88;;;;;;;;;;4960808;28;20042;-65
2023/06/19 10:06:33;;;;;;;16.35;5.55;;;;;;;;;;4960274;28;20038;-66
2023/06/19 10:09:09;;;;;;;16.58;5.60;;;;;;;;;;4962696;28;20046;-66
2023/06/19 10:11:47;;;;;;;14.60;5.53;;;;;;;;;;4942946;28;20492;-66
2023/06/19 10:14:13;;;;;;;20.08;6.20;;;;;;;;;;4957064;28;20067;-66
2023/06/19 10:16:41;;;;;;;18.48;5.78;;;;;;;;;;4947256;28;20120;-65
2023/06/19 10:19:17;;;;;;;17.80;5.60;;;;;;;;;;4960025;28;20030;-65
2023/06/19 10:21:51;;;;;;;16.92;5.38;;;;;;;;;;4959852;28;20031;-65
2023/06/19 10:24:19;;;;;;;16.08;5.25;;;;;;;;;;4958045;28;20061;-65
2023/06/19 10:26:57;;;;;;;19.45;6.53;;;;;;;;;;4960875;28;20835;-65
2023/06/19 10:29:23;;;;;;;20.88;6.18;;;;;;;;;;4959039;28;20045;-65
2023/06/19 10:31:50;;;;;;;18.55;6.10;;;;;;;;;;4943938;28;20030;-65
2023/06/19 10:34:17;;;;;;;19.65;6.03;;;;;;;;;;4956437;28;20045;-65
2023/06/19 10:36:43;;;;;;;18.40;5.63;;;;;;;;;;4959620;28;20030;-65
2023/06/19 10:39:10;;;;;;;22.65;6.05;;;;;;;;;;4955601;28;20105;-65
2023/06/19 10:41:37;;;;;;;20.45;6.22;;;;;;;;;;4959352;28;20461;-65
2023/06/19 10:44:12;;;;;;;16.55;6.07;;;;;;;;;;4960687;28;20068;-65
2023/06/19 10:46:38;;;;;;;19.27;5.88;;;;;;;;;;4958638;28;20423;-64
2023/06/19 10:49:05;;;;;;;22.02;6.10;;;;;;;;;;4946193;28;20040;-65
2023/06/19 10:51:34;;;;;;;18.88;6.15;;;;;;;;;;4946347;28;20039;-65
2023/06/19 10:54:00;;;;;;;25.30;6.65;;;;;;;;;;4961434;28;20606;-65
2023/06/19 10:56:27;;;;;;;23.20;6.55;;;;;;;;;;4956040;28;20034;-65
2023/06/19 10:59:02;;;;;;;20.80;6.53;;;;;;;;;;4959833;28;20026;-65
2023/06/19 11:01:32;;;;;;;22.83;6.65;;;;;;;;;;4954967;28;20030;-65
2023/06/19 11:03:59;;;;;;;22.52;6.35;;;;;;;;;;4958003;28;20719;-65
2023/06/19 11:06:26;;;;;;;21.00;6.72;;;;;;;;;;4955224;28;22267;-73
2023/06/19 11:08:52;;;;;;;20.45;6.90;;;;;;;;;;4943532;28;20077;-73
2023/06/19 11:11:20;;;;;;;21.40;7.05;;;;;;;;;;4938393;28;20479;-72
2023/06/19 11:13:46;;;;;;;24.88;7.43;;;;;;;;;;4958975;28;20050;-73
2023/06/19 11:16:14;;;;;;;24.45;7.28;;;;;;;;;;4956593;28;20783;-72
2023/06/19 11:18:41;;;;;;;21.52;7.05;;;;;;;;;;4958252;28;20124;-73
2023/06/19 11:21:07;;;;;;;22.42;6.53;;;;;;;;;;4956772;28;20316;-73
2023/06/19 11:23:33;;;;;;;21.40;6.70;;;;;;;;;;4960033;28;20033;-73
2023/06/19 11:26:03;;;;;;;23.27;6.43;;;;;;;;;;4959443;28;20040;-73
2023/06/19 11:28:29;;;;;;;21.65;6.63;;;;;;;;;;4956354;28;20061;-73
2023/06/19 11:30:59;;;;;;;21.50;6.78;;;;;;;;;;4957793;28;20022;-73
2023/06/19 11:33:26;;;;;;;18.77;5.70;;;;;;;;;;4955847;28;20038;-74
2023/06/19 11:35:52;;;;;;;20.40;6.40;;;;;;;;;;4959417;28;20839;-73
2023/06/19 11:38:19;;;;;;;22.50;6.65;;;;;;;;;;4954752;28;20038;-72
2023/06/19 11:40:46;;;;;;;20.75;6.43;;;;;;;;;;4958090;28;20791;-72
2023/06/19 11:43:12;;;;;;;23.90;5.95;;;;;;;;;;4956723;28;20030;-73
2023/06/19 11:45:52;;;;;;;25.08;7.03;;;;;;;;;;4955808;28;20463;-74
2023/06/19 11:48:25;;;;;;;22.67;6.78;;;;;;;;;;4941032;28;20491;-72
2023/06/19 11:50:51;;;;;;;24.13;6.78;;;;;;;;;;4942536;28;20030;-71
2023/06/19 11:53:18;;;;;;;23.23;6.85;;;;;;;;;;4927129;28;20038;-72
2023/06/19 11:55:44;;;;;;;18.83;6.03;;;;;;;;;;4959872;28;20539;-73
2023/06/19 11:58:10;;;;;;;22.52;6.57;;;;;;;;;;4956114;28;20073;-74
2023/06/19 12:00:37;;;;;;;22.65;6.70;;;;;;;;;;4957531;28;20030;-73
2023/06/19 12:03:03;;;;;;;22.63;5.90;;;;;;;;;;4955542;28;20458;-72
2023/06/19 12:05:29;;;;;;;22.63;6.68;;;;;;;;;;4943488;28;20047;-72
2023/06/19 12:07:56;;;;;;;24.95;7.07;;;;;;;;;;4957441;28;20070;-73
2023/06/19 12:10:22;;;;;;;21.90;5.88;;;;;;;;;;4955512;28;20048;-69
2023/06/19 12:12:48;;;;;;;25.38;6.07;;;;;;;;;;4959142;28;20034;-69
2023/06/19 12:15:15;;;;;;;28.55;6.55;;;;;;;;;;4954780;28;20026;-69
2023/06/19 12:17:41;;;;;;;24.27;5.78;;;;;;;;;;4958619;28;20086;-66
2023/06/19 12:20:08;;;;;;;21.70;5.40;;;;;;;;;;4954935;28;20041;-66
2023/06/19 12:22:34;;;;;;;19.73;4.88;;;;;;;;;;4942451;28;20038;-66
2023/06/19 12:25:01;;;;;;;20.58;5.13;;;;;;;;;;4945072;28;20170;-69
2023/06/19 12:27:27;;;;;;;20.60;5.10;;;;;;;;;;4954961;28;20579;-68
2023/06/19 12:29:54;;;;;;;23.90;5.53;;;;;;;;;;4964276;28;20034;-67
2023/06/19 12:32:21;;;;;;;19.90;5.18;;;;;;;;;;4960222;28;21139;-67
2023/06/19 12:34:47;;;;;;;20.35;5.18;;;;;;;;;;4962602;28;20455;-67
2023/06/19 12:37:17;;;;;;;19.35;5.10;;;;;;;;;;4960312;28;20057;-66
2023/06/19 12:39:44;;;;;;;20.13;5.22;;;;;;;;;;4962740;28;20077;-67
2023/06/19 12:42:12;;;;;;;25.13;4.82;;;;;;;;;;4957640;28;20023;-66
2023/06/19 12:44:38;;;;;;;22.30;5.15;;;;;;;;;;4946310;28;20480;-68
2023/06/19 12:47:05;;;;;;;17.88;5.72;;;;;;;;;;4963652;28;20089;-67
2023/06/19 12:49:31;;;;;;;18.45;5.45;;;;;;;;;;4961613;28;20053;-68
2023/06/19 12:51:57;;;;;;;25.10;5.28;;;;;;;;;;4961852;28;20126;-67
2023/06/19 12:54:24;;;;;;;23.23;5.47;;;;;;;;;;4960136;28;20390;-68
2023/06/19 12:56:50;;;;;;;25.15;4.85;;;;;;;;;;4963575;28;20038;-67
2023/06/19 12:59:16;;;;;;;20.90;4.63;;;;;;;;;;4957967;28;20038;-68
2023/06/19 13:01:43;;;;;;;19.70;5.22;;;;;;;;;;4961881;28;20093;-68
2023/06/19 13:04:10;;;;;;;20.30;4.53;;;;;;;;;;4959630;28;20144;-68
2023/06/19 13:06:37;;;;;;;17.52;4.78;;;;;;;;;;4961473;28;20050;-68
2023/06/19 13:09:04;;;;;;;19.55;5.10;;;;;;;;;;4960098;28;20046;-67
2023/06/19 13:11:31;;;;;;;23.05;4.93;;;;;;;;;;4961341;28;20041;-68
2023/06/19 13:13:57;;;;;;;19.42;5.35;;;;;;;;;;4962936;28;20501;-67
2023/06/19 13:16:26;;;;;;;25.27;5.13;;;;;;;;;;4959162;28;20038;-67
2023/06/19 13:18:52;;;;;;;23.80;5.82;;;;;;;;;;4963336;28;20018;-67
2023/06/19 13:21:19;;;;;;;22.73;4.82;;;;;;;;;;4955604;28;20049;-67
2023/06/19 13:23:45;;;;;;;26.52;4.70;;;;;;;;;;4962190;28;20292;-68
2023/06/19 13:26:12;;;;;;;21.65;5.43;;;;;;;;;;4959696;28;20030;-68
2023/06/19 13:28:38;;;;;;;21.27;5.25;;;;;;;;;;4960989;28;20200;-67
2023/06/19 13:31:04;;;;;;;22.45;5.13;;;;;;;;;;4962741;28;20034;-67
2023/06/19 13:33:30;;;;;;;18.70;5.15;;;;;;;;;;4960418;28;20388;-68
2023/06/19 13:35:57;;;;;;;22.13;5.20;;;;;;;;;;4960389;28;20475;-67
2023/06/19 13:38:23;;;;;;;18.58;4.90;;;;;;;;;;4957973;28;20113;-66
2023/06/19 13:40:49;;;;;;;20.63;5.40;;;;;;;;;;4960425;28;20085;-67
2023/06/19 13:43:16;;;;;;;21.92;4.85;;;;;;;;;;4957748;28;20045;-67
2023/06/19 13:45:43;;;;;;;22.88;5.22;;;;;;;;;;4959695;28;20041;-66
2023/06/19 13:48:09;;;;;;;19.30;4.70;;;;;;;;;;4965349;28;20050;-67
2023/06/19 13:50:35;;;;;;;20.15;5.82;;;;;;;;;;4963042;28;20814;-67
2023/06/19 13:53:02;;;;;;;23.73;5.20;;;;;;;;;;4961160;28;20595;-66
2023/06/19 13:55:28;;;;;;;23.65;5.95;;;;;;;;;;4942587;28;20468;-67
2023/06/19 13:57:54;;;;;;;19.13;5.47;;;;;;;;;;4946963;28;20145;-68
2023/06/19 14:00:21;;;;;;;21.23;5.40;;;;;;;;;;4959052;28;20034;-67
2023/06/19 14:02:47;;;;;;;21.33;5.93;;;;;;;;;;4959273;28;20026;-69
2023/06/19 14:05:16;;;;;;;28.20;6.10;;;;;;;;;;4957953;28;20101;-67
2023/06/19 14:07:42;;;;;;;18.58;4.75;;;;;;;;;;4959284;28;20042;-66
2023/06/19 14:10:09;;;;;;;21.95;5.15;;;;;;;;;;4958615;28;20031;-66
2023/06/19 14:12:35;;;;;;;18.90;5.18;;;;;;;;;;4960685;28;20103;-66
2023/06/19 14:15:01;;;;;;;29.17;5.45;;;;;;;;;;4954399;28;20125;-66
2023/06/19 14:17:27;;;;;;;27.83;5.78;;;;;;;;;;4937583;28;20392;-68
2023/06/19 14:19:55;;;;;;;20.83;5.30;;;;;;;;;;4956448;28;20993;-66
2023/06/19 14:22:22;;;;;;;23.65;5.55;;;;;;;;;;4951705;28;20038;-68
2023/06/19 14:24:48;;;;;;;28.50;5.47;;;;;;;;;;4956112;28;20049;-69
2023/06/19 14:27:14;;;;;;;24.05;5.43;;;;;;;;;;4951386;28;20556;-68
2023/06/19 14:29:41;;;;;;;24.33;5.90;;;;;;;;;;4952843;28;20027;-67